sensor_id;sensor_type;location;lat;lon;timestamp;P1;durP1;ratioP1;P2;durP2;ratioP2
52796;SDS011;38666;43.348;12.584;2022-12-07T06:54:53;17.02;;;4.57;;
52796;SDS011;38666;43.348;12.584;2022-12-07T06:57:19;21.70;;;4.63;;
52796;SDS011;38666;43.348;12.584;2022-12-07T06:59:45;42.28;;;13.63;;
52796;SDS011;38666;43.348;12.584;2022-12-07T07:02:10;41.97;;;16.33;;
52796;SDS011;38666;43.348;12.584;2022-12-07T07:04:36;41.37;;;15.37;;
52796;SDS011;38666;43.348;12.584;2022-12-07T07:07:01;42.05;;;15.15;;
52796;SDS011;38666;43.348;12.584;2022-12-07T07:09:27;33.50;;;13.20;;
52796;SDS011;38666;43.348;12.584;2022-12-07T07:11:52;34.65;;;12.13;;
52796;SDS011;38666;43.348;12.584;2022-12-07T07:14:17;28.43;;;10.03;;
52796;SDS011;38666;43.348;12.584;2022-12-07T07:16:44;41.33;;;9.00;;
52796;SDS011;38666;43.348;12.584;2022-12-07T07:19:10;27.40;;;7.00;;
52796;SDS011;38666;43.348;12.584;2022-12-07T07:21:36;28.88;;;8.18;;
52796;SDS011;38666;43.348;12.584;2022-12-07T07:24:01;31.73;;;6.13;;
52796;SDS011;38666;43.348;12.584;2022-12-07T07:26:27;27.37;;;11.07;;
52796;SDS011;38666;43.348;12.584;2022-12-07T07:28:52;30.63;;;11.43;;
52796;SDS011;38666;43.348;12.584;2022-12-07T07:31:18;29.47;;;9.67;;
52796;SDS011;38666;43.348;12.584;2022-12-07T07:33:45;25.67;;;9.27;;
52796;SDS011;38666;43.348;12.584;2022-12-07T07:36:11;31.50;;;9.20;;
52796;SDS011;38666;43.348;12.584;2022-12-07T07:38:37;28.10;;;9.20;;
52796;SDS011;38666;43.348;12.584;2022-12-07T07:41:02;18.57;;;6.43;;
52796;SDS011;38666;43.348;12.584;2022-12-07T07:43:28;16.77;;;4.03;;
52796;SDS011;38666;43.348;12.584;2022-12-07T07:45:53;28.80;;;4.90;;
52796;SDS011;38666;43.348;12.584;2022-12-07T07:48:19;17.95;;;3.67;;
52796;SDS011;38666;43.348;12.584;2022-12-07T07:50:44;18.60;;;3.97;;
52796;SDS011;38666;43.348;12.584;2022-12-07T07:53:10;24.30;;;7.73;;
52796;SDS011;38666;43.348;12.584;2022-12-07T07:55:35;20.88;;;6.82;;
52796;SDS011;38666;43.348;12.584;2022-12-07T07:58:01;18.80;;;7.00;;
52796;SDS011;38666;43.348;12.584;2022-12-07T08:00:26;23.90;;;6.35;;
52796;SDS011;38666;43.348;12.584;2022-12-07T08:02:51;21.87;;;3.63;;
52796;SDS011;38666;43.348;12.584;2022-12-07T08:05:17;25.93;;;5.30;;
52796;SDS011;38666;43.348;12.584;2022-12-07T08:07:43;31.77;;;10.73;;
52796;SDS011;38666;43.348;12.584;2022-12-07T08:10:09;49.80;;;13.63;;
52796;SDS011;38666;43.348;12.584;2022-12-07T08:12:39;24.88;;;6.90;;
52796;SDS011;38666;43.348;12.584;2022-12-07T08:15:27;22.25;;;9.85;;
52796;SDS011;38666;43.348;12.584;2022-12-07T08:17:54;25.38;;;10.20;;
52796;SDS011;38666;43.348;12.584;2022-12-07T08:20:19;25.40;;;12.40;;
52796;SDS011;38666;43.348;12.584;2022-12-07T08:22:45;22.58;;;10.45;;
52796;SDS011;38666;43.348;12.584;2022-12-07T08:25:10;28.07;;;12.97;;
52796;SDS011;38666;43.348;12.584;2022-12-07T08:27:36;22.93;;;11.73;;
52796;SDS011;38666;43.348;12.584;2022-12-07T08:30:01;33.97;;;11.93;;
52796;SDS011;38666;43.348;12.584;2022-12-07T08:32:27;27.80;;;12.57;;
52796;SDS011;38666;43.348;12.584;2022-12-07T08:34:53;23.38;;;10.50;;
52796;SDS011;38666;43.348;12.584;2022-12-07T08:37:18;20.00;;;7.50;;
52796;SDS011;38666;43.348;12.584;2022-12-07T08:39:44;25.73;;;6.83;;
52796;SDS011;38666;43.348;12.584;2022-12-07T08:42:09;15.13;;;4.57;;
52796;SDS011;38666;43.348;12.584;2022-12-07T08:44:34;20.93;;;4.03;;
52796;SDS011;38666;43.348;12.584;2022-12-07T08:47:01;13.10;;;2.97;;
52796;SDS011;38666;43.348;12.584;2022-12-07T08:52:06;52.22;;;22.60;;
52796;SDS011;38666;43.348;12.584;2022-12-07T08:54:33;30.30;;;11.87;;
52796;SDS011;38666;43.348;12.584;2022-12-07T08:57:01;25.42;;;11.95;;
52796;SDS011;38666;43.348;12.584;2022-12-07T08:59:26;29.70;;;12.77;;
52796;SDS011;38666;43.348;12.584;2022-12-07T09:01:53;29.20;;;13.80;;
52796;SDS011;38666;43.348;12.584;2022-12-07T09:04:19;24.98;;;13.00;;
52796;SDS011;38666;43.348;12.584;2022-12-07T09:06:45;24.42;;;10.88;;
52796;SDS011;38666;43.348;12.584;2022-12-07T09:09:11;29.23;;;11.18;;
52796;SDS011;38666;43.348;12.584;2022-12-07T09:11:38;31.08;;;12.50;;
52796;SDS011;38666;43.348;12.584;2022-12-07T09:14:04;29.57;;;12.93;;
52796;SDS011;38666;43.348;12.584;2022-12-07T09:16:30;36.78;;;14.35;;
52796;SDS011;38666;43.348;12.584;2022-12-07T09:18:55;32.13;;;15.27;;
52796;SDS011;38666;43.348;12.584;2022-12-07T09:21:21;26.85;;;11.95;;
52796;SDS011;38666;43.348;12.584;2022-12-07T09:23:46;28.77;;;9.20;;
52796;SDS011;38666;43.348;12.584;2022-12-07T09:26:12;26.73;;;9.90;;
52796;SDS011;38666;43.348;12.584;2022-12-07T09:28:37;25.27;;;10.48;;
52796;SDS011;38666;43.348;12.584;2022-12-07T09:31:04;16.57;;;9.00;;
52796;SDS011;38666;43.348;12.584;2022-12-07T09:33:30;17.60;;;7.68;;
52796;SDS011;38666;43.348;12.584;2022-12-07T09:35:55;17.80;;;8.53;;
52796;SDS011;38666;43.348;12.584;2022-12-07T09:38:21;16.77;;;7.53;;
52796;SDS011;38666;43.348;12.584;2022-12-07T09:40:47;28.90;;;7.53;;
52796;SDS011;38666;43.348;12.584;2022-12-07T09:43:30;16.73;;;6.18;;
52796;SDS011;38666;43.348;12.584;2022-12-07T09:45:56;24.40;;;3.30;;
52796;SDS011;38666;43.348;12.584;2022-12-07T09:48:40;13.98;;;3.13;;
52796;SDS011;38666;43.348;12.584;2022-12-07T09:51:26;10.90;;;2.90;;
52796;SDS011;38666;43.348;12.584;2022-12-07T09:53:52;19.45;;;3.65;;
52796;SDS011;38666;43.348;12.584;2022-12-07T09:56:19;24.98;;;4.13;;
52796;SDS011;38666;43.348;12.584;2022-12-07T09:58:46;19.60;;;3.65;;
52796;SDS011;38666;43.348;12.584;2022-12-07T10:01:13;15.65;;;4.07;;
52796;SDS011;38666;43.348;12.584;2022-12-07T10:03:53;10.38;;;2.50;;
52796;SDS011;38666;43.348;12.584;2022-12-07T10:06:21;18.23;;;3.70;;
52796;SDS011;38666;43.348;12.584;2022-12-07T10:08:48;12.70;;;3.22;;
52796;SDS011;38666;43.348;12.584;2022-12-07T10:11:14;23.67;;;3.47;;
52796;SDS011;38666;43.348;12.584;2022-12-07T10:16:31;14.27;;;2.80;;
52796;SDS011;38666;43.348;12.584;2022-12-07T10:19:20;19.55;;;3.80;;
52796;SDS011;38666;43.348;12.584;2022-12-07T10:24:46;14.98;;;3.58;;
52796;SDS011;38666;43.348;12.584;2022-12-07T10:27:31;15.90;;;3.42;;
52796;SDS011;38666;43.348;12.584;2022-12-07T10:29:57;25.33;;;3.55;;
52796;SDS011;38666;43.348;12.584;2022-12-07T10:37:42;23.85;;;3.53;;
52796;SDS011;38666;43.348;12.584;2022-12-07T10:40:23;22.63;;;3.90;;
52796;SDS011;38666;43.348;12.584;2022-12-07T10:43:39;20.92;;;3.60;;
52796;SDS011;38666;43.348;12.584;2022-12-07T10:56:46;18.10;;;4.40;;
52796;SDS011;38666;43.348;12.584;2022-12-07T10:59:34;15.63;;;4.03;;
52796;SDS011;38666;43.348;12.584;2022-12-07T11:08:13;24.95;;;4.18;;
52796;SDS011;38666;43.348;12.584;2022-12-07T11:11:11;14.67;;;3.70;;
52796;SDS011;38666;43.348;12.584;2022-12-07T11:24:14;12.85;;;3.35;;
52796;SDS011;38666;43.348;12.584;2022-12-07T11:29:47;13.90;;;3.70;;
52796;SDS011;38666;43.348;12.584;2022-12-07T11:37:56;16.47;;;3.97;;
52796;SDS011;38666;43.348;12.584;2022-12-07T11:40:33;21.07;;;3.93;;
52796;SDS011;38666;43.348;12.584;2022-12-07T11:43:02;18.13;;;3.97;;
52796;SDS011;38666;43.348;12.584;2022-12-07T11:45:41;14.43;;;3.40;;
52796;SDS011;38666;43.348;12.584;2022-12-07T11:48:17;13.77;;;3.63;;
52796;SDS011;38666;43.348;12.584;2022-12-07T11:50:48;19.98;;;3.25;;
52796;SDS011;38666;43.348;12.584;2022-12-07T11:56:14;19.27;;;4.93;;
52796;SDS011;38666;43.348;12.584;2022-12-07T12:06:48;12.73;;;3.80;;
52796;SDS011;38666;43.348;12.584;2022-12-07T12:14:57;12.27;;;3.20;;
52796;SDS011;38666;43.348;12.584;2022-12-07T12:24:01;28.05;;;9.95;;
52796;SDS011;38666;43.348;12.584;2022-12-07T12:26:35;22.35;;;8.25;;
52796;SDS011;38666;43.348;12.584;2022-12-07T12:29:03;15.43;;;6.75;;
52796;SDS011;38666;43.348;12.584;2022-12-07T12:31:39;19.70;;;6.10;;
52796;SDS011;38666;43.348;12.584;2022-12-07T12:36:55;25.30;;;6.97;;
52796;SDS011;38666;43.348;12.584;2022-12-07T12:39:21;14.85;;;3.78;;
52796;SDS011;38666;43.348;12.584;2022-12-07T12:47:03;15.90;;;5.07;;
52796;SDS011;38666;43.348;12.584;2022-12-07T12:57:33;9.73;;;3.58;;
52796;SDS011;38666;43.348;12.584;2022-12-07T13:00:02;15.20;;;4.30;;
52796;SDS011;38666;43.348;12.584;2022-12-07T13:02:38;12.57;;;3.43;;
52796;SDS011;38666;43.348;12.584;2022-12-07T13:15:50;17.92;;;6.28;;
52796;SDS011;38666;43.348;12.584;2022-12-07T13:31:45;27.20;;;7.78;;
52796;SDS011;38666;43.348;12.584;2022-12-07T13:37:00;22.65;;;7.45;;
52796;SDS011;38666;43.348;12.584;2022-12-07T13:39:45;20.30;;;7.07;;
52796;SDS011;38666;43.348;12.584;2022-12-07T13:42:24;18.90;;;5.45;;
52796;SDS011;38666;43.348;12.584;2022-12-07T13:44:52;19.08;;;5.55;;
52796;SDS011;38666;43.348;12.584;2022-12-07T13:50:27;28.33;;;5.88;;
52796;SDS011;38666;43.348;12.584;2022-12-07T13:52:55;10.30;;;4.40;;
52796;SDS011;38666;43.348;12.584;2022-12-07T13:55:21;13.77;;;4.47;;
52796;SDS011;38666;43.348;12.584;2022-12-07T13:57:48;22.42;;;5.80;;
52796;SDS011;38666;43.348;12.584;2022-12-07T14:00:20;18.33;;;6.28;;
52796;SDS011;38666;43.348;12.584;2022-12-07T14:05:38;23.17;;;8.63;;
52796;SDS011;38666;43.348;12.584;2022-12-07T14:08:20;24.48;;;8.60;;
52796;SDS011;38666;43.348;12.584;2022-12-07T14:16:17;29.15;;;10.90;;
52796;SDS011;38666;43.348;12.584;2022-12-07T14:18:58;23.05;;;10.27;;
52796;SDS011;38666;43.348;12.584;2022-12-07T14:21:28;27.40;;;12.90;;
52796;SDS011;38666;43.348;12.584;2022-12-07T14:26:40;20.80;;;9.73;;
52796;SDS011;38666;43.348;12.584;2022-12-07T14:29:18;25.73;;;10.25;;
52796;SDS011;38666;43.348;12.584;2022-12-07T14:31:45;29.42;;;13.57;;
52796;SDS011;38666;43.348;12.584;2022-12-07T14:34:11;25.33;;;10.93;;
52796;SDS011;38666;43.348;12.584;2022-12-07T14:36:37;29.67;;;12.17;;
52796;SDS011;38666;43.348;12.584;2022-12-07T14:39:03;38.00;;;15.70;;
52796;SDS011;38666;43.348;12.584;2022-12-07T14:41:28;41.47;;;14.97;;
52796;SDS011;38666;43.348;12.584;2022-12-07T14:44:12;29.77;;;12.68;;
52796;SDS011;38666;43.348;12.584;2022-12-07T14:46:38;33.00;;;13.13;;
52796;SDS011;38666;43.348;12.584;2022-12-07T14:49:03;35.33;;;12.87;;
52796;SDS011;38666;43.348;12.584;2022-12-07T14:51:30;21.80;;;10.35;;
52796;SDS011;38666;43.348;12.584;2022-12-07T14:53:55;26.45;;;9.30;;
52796;SDS011;38666;43.348;12.584;2022-12-07T14:56:21;33.70;;;9.97;;
52796;SDS011;38666;43.348;12.584;2022-12-07T14:58:46;28.13;;;12.50;;
52796;SDS011;38666;43.348;12.584;2022-12-07T15:01:13;36.17;;;15.20;;
52796;SDS011;38666;43.348;12.584;2022-12-07T15:03:39;35.70;;;13.35;;
52796;SDS011;38666;43.348;12.584;2022-12-07T15:06:05;36.17;;;13.40;;
52796;SDS011;38666;43.348;12.584;2022-12-07T15:08:31;28.55;;;10.90;;
52796;SDS011;38666;43.348;12.584;2022-12-07T15:10:57;25.40;;;10.65;;
52796;SDS011;38666;43.348;12.584;2022-12-07T15:13:22;27.97;;;10.87;;
52796;SDS011;38666;43.348;12.584;2022-12-07T15:16:08;45.47;;;17.67;;
52796;SDS011;38666;43.348;12.584;2022-12-07T15:18:37;33.05;;;11.57;;
52796;SDS011;38666;43.348;12.584;2022-12-07T15:21:02;38.88;;;12.18;;
52796;SDS011;38666;43.348;12.584;2022-12-07T15:23:28;24.20;;;7.83;;
52796;SDS011;38666;43.348;12.584;2022-12-07T15:25:53;22.70;;;6.53;;
52796;SDS011;38666;43.348;12.584;2022-12-07T15:28:19;20.87;;;6.90;;
52796;SDS011;38666;43.348;12.584;2022-12-07T15:30:44;23.37;;;7.80;;
52796;SDS011;38666;43.348;12.584;2022-12-07T15:33:10;24.45;;;10.10;;
52796;SDS011;38666;43.348;12.584;2022-12-07T15:35:43;23.05;;;7.95;;
52796;SDS011;38666;43.348;12.584;2022-12-07T15:38:10;20.83;;;5.97;;
52796;SDS011;38666;43.348;12.584;2022-12-07T15:40:36;17.88;;;5.90;;
52796;SDS011;38666;43.348;12.584;2022-12-07T15:43:02;15.63;;;4.72;;
52796;SDS011;38666;43.348;12.584;2022-12-07T15:45:28;13.60;;;4.25;;
52796;SDS011;38666;43.348;12.584;2022-12-07T15:47:54;15.70;;;4.27;;
52796;SDS011;38666;43.348;12.584;2022-12-07T15:50:20;33.80;;;4.78;;
52796;SDS011;38666;43.348;12.584;2022-12-07T15:52:46;19.03;;;5.40;;
52796;SDS011;38666;43.348;12.584;2022-12-07T15:55:12;10.55;;;3.08;;
52796;SDS011;38666;43.348;12.584;2022-12-07T15:57:38;14.95;;;4.00;;
52796;SDS011;38666;43.348;12.584;2022-12-07T16:00:04;12.25;;;3.78;;
52796;SDS011;38666;43.348;12.584;2022-12-07T16:02:31;8.63;;;3.15;;
52796;SDS011;38666;43.348;12.584;2022-12-07T16:04:57;44.37;;;10.03;;
52796;SDS011;38666;43.348;12.584;2022-12-07T16:07:22;17.92;;;5.30;;
52796;SDS011;38666;43.348;12.584;2022-12-07T16:09:48;21.87;;;6.90;;
52796;SDS011;38666;43.348;12.584;2022-12-07T16:12:14;14.02;;;4.60;;
52796;SDS011;38666;43.348;12.584;2022-12-07T16:14:41;11.88;;;4.05;;
52796;SDS011;38666;43.348;12.584;2022-12-07T16:17:07;20.45;;;4.82;;
52796;SDS011;38666;43.348;12.584;2022-12-07T16:19:34;21.45;;;5.07;;
52796;SDS011;38666;43.348;12.584;2022-12-07T16:22:00;24.43;;;7.20;;
52796;SDS011;38666;43.348;12.584;2022-12-07T16:24:26;24.17;;;6.53;;
52796;SDS011;38666;43.348;12.584;2022-12-07T16:26:52;24.60;;;7.03;;
52796;SDS011;38666;43.348;12.584;2022-12-07T16:29:18;28.50;;;8.00;;
52796;SDS011;38666;43.348;12.584;2022-12-07T16:31:45;51.30;;;25.40;;
52796;SDS011;38666;43.348;12.584;2022-12-07T16:34:12;35.20;;;15.32;;
52796;SDS011;38666;43.348;12.584;2022-12-07T16:36:38;32.22;;;15.73;;
52796;SDS011;38666;43.348;12.584;2022-12-07T16:39:04;24.43;;;11.70;;
52796;SDS011;38666;43.348;12.584;2022-12-07T16:41:30;20.25;;;9.32;;
52796;SDS011;38666;43.348;12.584;2022-12-07T16:43:55;22.27;;;9.23;;
52796;SDS011;38666;43.348;12.584;2022-12-07T16:46:21;24.33;;;9.00;;
52796;SDS011;38666;43.348;12.584;2022-12-07T16:48:46;21.45;;;9.70;;
52796;SDS011;38666;43.348;12.584;2022-12-07T16:51:13;34.20;;;14.53;;
52796;SDS011;38666;43.348;12.584;2022-12-07T16:53:39;26.83;;;9.38;;
52796;SDS011;38666;43.348;12.584;2022-12-07T16:56:10;22.30;;;9.98;;
52796;SDS011;38666;43.348;12.584;2022-12-07T16:58:37;27.35;;;9.38;;
52796;SDS011;38666;43.348;12.584;2022-12-07T17:01:12;36.55;;;12.38;;
52796;SDS011;38666;43.348;12.584;2022-12-07T17:03:47;37.55;;;18.88;;
52796;SDS011;38666;43.348;12.584;2022-12-07T17:06:17;41.80;;;18.25;;
52796;SDS011;38666;43.348;12.584;2022-12-07T17:08:44;35.08;;;14.90;;
52796;SDS011;38666;43.348;12.584;2022-12-07T17:11:20;36.38;;;14.73;;
52796;SDS011;38666;43.348;12.584;2022-12-07T17:13:48;34.42;;;13.02;;
52796;SDS011;38666;43.348;12.584;2022-12-07T17:16:32;35.58;;;13.75;;
52796;SDS011;38666;43.348;12.584;2022-12-07T17:18:57;26.73;;;10.73;;
52796;SDS011;38666;43.348;12.584;2022-12-07T17:21:23;32.70;;;9.63;;
52796;SDS011;38666;43.348;12.584;2022-12-07T17:23:49;33.60;;;9.32;;
52796;SDS011;38666;43.348;12.584;2022-12-07T17:26:17;24.67;;;8.93;;
52796;SDS011;38666;43.348;12.584;2022-12-07T17:28:47;19.55;;;6.07;;
52796;SDS011;38666;43.348;12.584;2022-12-07T17:31:13;17.35;;;6.40;;
52796;SDS011;38666;43.348;12.584;2022-12-07T17:33:40;24.67;;;7.68;;
52796;SDS011;38666;43.348;12.584;2022-12-07T17:36:13;31.63;;;9.77;;
52796;SDS011;38666;43.348;12.584;2022-12-07T17:38:40;23.25;;;9.38;;
52796;SDS011;38666;43.348;12.584;2022-12-07T17:41:10;25.27;;;9.47;;
52796;SDS011;38666;43.348;12.584;2022-12-07T17:43:59;29.77;;;10.43;;
52796;SDS011;38666;43.348;12.584;2022-12-07T17:46:25;27.27;;;10.37;;
52796;SDS011;38666;43.348;12.584;2022-12-07T17:48:53;27.35;;;10.20;;
52796;SDS011;38666;43.348;12.584;2022-12-07T17:51:19;22.38;;;9.25;;
52796;SDS011;38666;43.348;12.584;2022-12-07T17:54:03;25.17;;;10.27;;
52796;SDS011;38666;43.348;12.584;2022-12-07T17:56:29;22.60;;;8.02;;
52796;SDS011;38666;43.348;12.584;2022-12-07T17:58:54;29.40;;;8.83;;
52796;SDS011;38666;43.348;12.584;2022-12-07T18:01:20;25.87;;;10.60;;
52796;SDS011;38666;43.348;12.584;2022-12-07T18:03:45;30.23;;;11.07;;
52796;SDS011;38666;43.348;12.584;2022-12-07T18:06:11;30.00;;;11.63;;
52796;SDS011;38666;43.348;12.584;2022-12-07T18:08:36;27.50;;;10.60;;
52796;SDS011;38666;43.348;12.584;2022-12-07T18:11:03;47.25;;;21.50;;
52796;SDS011;38666;43.348;12.584;2022-12-07T18:13:29;32.90;;;14.68;;
52796;SDS011;38666;43.348;12.584;2022-12-07T18:16:24;24.35;;;10.90;;
52796;SDS011;38666;43.348;12.584;2022-12-07T18:18:52;28.60;;;11.20;;
52796;SDS011;38666;43.348;12.584;2022-12-07T18:21:22;57.72;;;24.55;;
52796;SDS011;38666;43.348;12.584;2022-12-07T18:23:50;29.93;;;11.90;;
52796;SDS011;38666;43.348;12.584;2022-12-07T18:26:18;44.60;;;15.43;;
52796;SDS011;38666;43.348;12.584;2022-12-07T18:28:45;41.55;;;20.50;;
52796;SDS011;38666;43.348;12.584;2022-12-07T18:31:11;23.77;;;11.45;;
52796;SDS011;38666;43.348;12.584;2022-12-07T18:33:37;37.38;;;16.77;;
52796;SDS011;38666;43.348;12.584;2022-12-07T18:36:03;25.83;;;13.93;;
52796;SDS011;38666;43.348;12.584;2022-12-07T18:38:29;24.83;;;11.63;;
52796;SDS011;38666;43.348;12.584;2022-12-07T18:40:55;25.90;;;8.57;;
52796;SDS011;38666;43.348;12.584;2022-12-07T18:43:20;25.27;;;8.23;;
52796;SDS011;38666;43.348;12.584;2022-12-07T18:45:49;14.98;;;6.75;;
52796;SDS011;38666;43.348;12.584;2022-12-07T18:48:15;15.95;;;4.65;;
52796;SDS011;38666;43.348;12.584;2022-12-07T18:50:44;26.40;;;12.45;;
